sensor_id;sensor_type;location;lat;lon;timestamp;P1;durP1;ratioP1;P2;durP2;ratioP2
73670;SDS011;61968;48.178;11.566;2023-12-20T00:00:17;2.42;;;1.67;;
73670;SDS011;61968;48.178;11.566;2023-12-20T00:02:44;3.78;;;1.75;;
73670;SDS011;61968;48.178;11.566;2023-12-20T00:05:12;4.38;;;1.77;;
73670;SDS011;61968;48.178;11.566;2023-12-20T00:07:38;2.42;;;1.75;;
73670;SDS011;61968;48.178;11.566;2023-12-20T00:12:33;2.03;;;1.73;;
73670;SDS011;61968;48.178;11.566;2023-12-20T00:15:00;2.80;;;1.73;;
73670;SDS011;61968;48.178;11.566;2023-12-20T00:19:53;1.42;;;1.27;;
73670;SDS011;61968;48.178;11.566;2023-12-20T00:24:45;2.92;;;1.60;;
73670;SDS011;61968;48.178;11.566;2023-12-20T00:29:39;7.07;;;1.55;;
73670;SDS011;61968;48.178;11.566;2023-12-20T00:32:08;2.38;;;1.65;;
73670;SDS011;61968;48.178;11.566;2023-12-20T00:37:00;2.05;;;1.20;;
73670;SDS011;61968;48.178;11.566;2023-12-20T00:39:27;3.30;;;1.60;;
73670;SDS011;61968;48.178;11.566;2023-12-20T00:44:20;3.00;;;1.42;;
73670;SDS011;61968;48.178;11.566;2023-12-20T00:49:14;1.65;;;1.10;;
73670;SDS011;61968;48.178;11.566;2023-12-20T00:54:07;1.85;;;1.25;;
73670;SDS011;61968;48.178;11.566;2023-12-20T00:56:34;1.67;;;1.38;;
73670;SDS011;61968;48.178;11.566;2023-12-20T00:59:00;1.70;;;1.10;;
73670;SDS011;61968;48.178;11.566;2023-12-20T01:01:27;1.85;;;1.40;;
73670;SDS011;61968;48.178;11.566;2023-12-20T01:06:21;2.58;;;1.38;;
73670;SDS011;61968;48.178;11.566;2023-12-20T01:11:14;2.55;;;1.30;;
73670;SDS011;61968;48.178;11.566;2023-12-20T01:13:40;2.35;;;1.50;;
73670;SDS011;61968;48.178;11.566;2023-12-20T01:16:10;1.73;;;1.40;;
73670;SDS011;61968;48.178;11.566;2023-12-20T01:18:37;2.50;;;1.70;;
73670;SDS011;61968;48.178;11.566;2023-12-20T01:21:05;1.13;;;1.02;;
73670;SDS011;61968;48.178;11.566;2023-12-20T01:23:31;2.28;;;0.90;;
73670;SDS011;61968;48.178;11.566;2023-12-20T01:25:58;1.80;;;1.33;;
73670;SDS011;61968;48.178;11.566;2023-12-20T01:28:25;1.65;;;1.13;;
73670;SDS011;61968;48.178;11.566;2023-12-20T01:30:52;1.30;;;1.08;;
73670;SDS011;61968;48.178;11.566;2023-12-20T01:35:45;1.90;;;1.08;;
73670;SDS011;61968;48.178;11.566;2023-12-20T01:38:13;1.20;;;1.08;;
73670;SDS011;61968;48.178;11.566;2023-12-20T01:40:39;1.83;;;0.93;;
73670;SDS011;61968;48.178;11.566;2023-12-20T01:45:34;0.80;;;0.70;;
73670;SDS011;61968;48.178;11.566;2023-12-20T01:48:00;1.60;;;0.90;;
73670;SDS011;61968;48.178;11.566;2023-12-20T01:50:28;1.20;;;1.10;;
73670;SDS011;61968;48.178;11.566;2023-12-20T01:52:55;4.10;;;1.10;;
73670;SDS011;61968;48.178;11.566;2023-12-20T01:55:25;1.35;;;1.00;;
73670;SDS011;61968;48.178;11.566;2023-12-20T01:57:53;0.88;;;0.60;;
73670;SDS011;61968;48.178;11.566;2023-12-20T02:00:20;2.75;;;1.23;;
73670;SDS011;61968;48.178;11.566;2023-12-20T02:02:48;2.42;;;1.25;;
73670;SDS011;61968;48.178;11.566;2023-12-20T02:05:18;1.02;;;0.75;;
73670;SDS011;61968;48.178;11.566;2023-12-20T02:07:49;0.90;;;0.73;;
73670;SDS011;61968;48.178;11.566;2023-12-20T02:10:16;1.15;;;0.93;;
73670;SDS011;61968;48.178;11.566;2023-12-20T02:12:44;1.20;;;0.80;;
73670;SDS011;61968;48.178;11.566;2023-12-20T02:15:11;0.82;;;0.73;;
73670;SDS011;61968;48.178;11.566;2023-12-20T02:17:38;0.50;;;0.50;;
73670;SDS011;61968;48.178;11.566;2023-12-20T02:20:06;1.05;;;0.63;;
73670;SDS011;61968;48.178;11.566;2023-12-20T02:22:34;1.10;;;0.80;;
73670;SDS011;61968;48.178;11.566;2023-12-20T02:25:01;1.13;;;1.02;;
73670;SDS011;61968;48.178;11.566;2023-12-20T02:27:27;1.02;;;0.90;;
73670;SDS011;61968;48.178;11.566;2023-12-20T02:29:55;1.67;;;1.02;;
73670;SDS011;61968;48.178;11.566;2023-12-20T02:32:22;1.98;;;0.98;;
73670;SDS011;61968;48.178;11.566;2023-12-20T02:34:54;0.60;;;0.60;;
73670;SDS011;61968;48.178;11.566;2023-12-20T02:37:21;1.02;;;0.70;;
73670;SDS011;61968;48.178;11.566;2023-12-20T02:39:50;0.60;;;0.60;;
73670;SDS011;61968;48.178;11.566;2023-12-20T02:42:16;0.88;;;0.88;;
73670;SDS011;61968;48.178;11.566;2023-12-20T02:44:43;1.48;;;0.77;;
73670;SDS011;61968;48.178;11.566;2023-12-20T02:47:09;0.82;;;0.65;;
73670;SDS011;61968;48.178;11.566;2023-12-20T02:49:36;2.28;;;0.75;;
73670;SDS011;61968;48.178;11.566;2023-12-20T02:52:03;0.60;;;0.45;;
73670;SDS011;61968;48.178;11.566;2023-12-20T02:54:30;1.25;;;0.80;;
73670;SDS011;61968;48.178;11.566;2023-12-20T02:56:58;0.55;;;0.55;;
73670;SDS011;61968;48.178;11.566;2023-12-20T02:59:26;0.50;;;0.50;;
73670;SDS011;61968;48.178;11.566;2023-12-20T03:01:53;0.50;;;0.50;;
73670;SDS011;61968;48.178;11.566;2023-12-20T03:04:20;0.93;;;0.50;;
73670;SDS011;61968;48.178;11.566;2023-12-20T03:06:46;1.00;;;0.50;;
73670;SDS011;61968;48.178;11.566;2023-12-20T03:09:13;1.38;;;0.43;;
73670;SDS011;61968;48.178;11.566;2023-12-20T03:11:39;0.75;;;0.60;;
73670;SDS011;61968;48.178;11.566;2023-12-20T03:14:07;0.75;;;0.70;;
73670;SDS011;61968;48.178;11.566;2023-12-20T03:16:34;1.38;;;0.40;;
73670;SDS011;61968;48.178;11.566;2023-12-20T03:19:01;0.70;;;0.60;;
73670;SDS011;61968;48.178;11.566;2023-12-20T03:21:28;0.40;;;0.40;;
73670;SDS011;61968;48.178;11.566;2023-12-20T03:23:55;0.52;;;0.52;;
73670;SDS011;61968;48.178;11.566;2023-12-20T03:26:22;0.30;;;0.30;;
73670;SDS011;61968;48.178;11.566;2023-12-20T03:28:48;0.65;;;0.60;;
73670;SDS011;61968;48.178;11.566;2023-12-20T03:31:16;0.65;;;0.65;;
73670;SDS011;61968;48.178;11.566;2023-12-20T03:33:43;0.45;;;0.40;;
73670;SDS011;61968;48.178;11.566;2023-12-20T03:36:09;0.77;;;0.63;;
73670;SDS011;61968;48.178;11.566;2023-12-20T03:38:36;0.60;;;0.60;;
73670;SDS011;61968;48.178;11.566;2023-12-20T03:41:03;0.70;;;0.57;;
73670;SDS011;61968;48.178;11.566;2023-12-20T03:43:30;1.60;;;0.68;;
73670;SDS011;61968;48.178;11.566;2023-12-20T03:45:57;0.50;;;0.50;;
73670;SDS011;61968;48.178;11.566;2023-12-20T03:48:25;0.50;;;0.50;;
73670;SDS011;61968;48.178;11.566;2023-12-20T03:50:51;0.43;;;0.40;;
73670;SDS011;61968;48.178;11.566;2023-12-20T03:53:18;0.75;;;0.63;;
73670;SDS011;61968;48.178;11.566;2023-12-20T03:55:45;0.30;;;0.30;;
73670;SDS011;61968;48.178;11.566;2023-12-20T03:58:12;0.73;;;0.73;;
73670;SDS011;61968;48.178;11.566;2023-12-20T04:00:38;2.67;;;0.82;;
73670;SDS011;61968;48.178;11.566;2023-12-20T04:03:06;0.98;;;0.90;;
73670;SDS011;61968;48.178;11.566;2023-12-20T04:05:34;0.52;;;0.52;;
73670;SDS011;61968;48.178;11.566;2023-12-20T04:08:01;1.33;;;0.70;;
73670;SDS011;61968;48.178;11.566;2023-12-20T04:10:28;1.00;;;0.70;;
73670;SDS011;61968;48.178;11.566;2023-12-20T04:12:56;0.50;;;0.50;;
73670;SDS011;61968;48.178;11.566;2023-12-20T04:15:22;1.50;;;1.10;;
73670;SDS011;61968;48.178;11.566;2023-12-20T04:17:49;0.63;;;0.50;;
73670;SDS011;61968;48.178;11.566;2023-12-20T04:20:15;1.90;;;0.70;;
73670;SDS011;61968;48.178;11.566;2023-12-20T04:22:44;1.23;;;0.90;;
73670;SDS011;61968;48.178;11.566;2023-12-20T04:25:10;0.95;;;0.60;;
73670;SDS011;61968;48.178;11.566;2023-12-20T04:27:37;0.60;;;0.60;;
73670;SDS011;61968;48.178;11.566;2023-12-20T04:30:04;1.58;;;0.50;;
73670;SDS011;61968;48.178;11.566;2023-12-20T04:32:32;0.80;;;0.80;;
73670;SDS011;61968;48.178;11.566;2023-12-20T04:37:25;0.60;;;0.60;;
73670;SDS011;61968;48.178;11.566;2023-12-20T04:39:53;1.15;;;0.45;;
73670;SDS011;61968;48.178;11.566;2023-12-20T04:42:20;0.75;;;0.75;;
73670;SDS011;61968;48.178;11.566;2023-12-20T04:44:46;0.65;;;0.65;;
73670;SDS011;61968;48.178;11.566;2023-12-20T04:49:42;0.98;;;0.93;;
73670;SDS011;61968;48.178;11.566;2023-12-20T04:54:35;0.80;;;0.80;;
73670;SDS011;61968;48.178;11.566;2023-12-20T04:59:37;1.38;;;1.05;;
73670;SDS011;61968;48.178;11.566;2023-12-20T05:02:06;0.80;;;0.80;;
73670;SDS011;61968;48.178;11.566;2023-12-20T05:04:35;4.72;;;1.17;;
73670;SDS011;61968;48.178;11.566;2023-12-20T05:07:02;2.28;;;1.15;;
73670;SDS011;61968;48.178;11.566;2023-12-20T05:09:29;1.15;;;1.00;;
73670;SDS011;61968;48.178;11.566;2023-12-20T05:11:56;3.42;;;1.58;;
73670;SDS011;61968;48.178;11.566;2023-12-20T05:14:24;1.00;;;0.90;;
73670;SDS011;61968;48.178;11.566;2023-12-20T05:16:51;1.08;;;1.00;;
73670;SDS011;61968;48.178;11.566;2023-12-20T05:19:18;3.22;;;1.70;;
73670;SDS011;61968;48.178;11.566;2023-12-20T05:21:44;1.60;;;1.50;;
73670;SDS011;61968;48.178;11.566;2023-12-20T05:24:11;2.78;;;1.45;;
73670;SDS011;61968;48.178;11.566;2023-12-20T05:26:41;1.55;;;1.45;;
73670;SDS011;61968;48.178;11.566;2023-12-20T05:29:07;2.60;;;1.30;;
73670;SDS011;61968;48.178;11.566;2023-12-20T05:31:35;2.17;;;1.52;;
73670;SDS011;61968;48.178;11.566;2023-12-20T05:34:02;3.97;;;1.40;;
73670;SDS011;61968;48.178;11.566;2023-12-20T05:36:28;1.80;;;1.60;;
73670;SDS011;61968;48.178;11.566;2023-12-20T05:38:55;2.45;;;1.63;;
73670;SDS011;61968;48.178;11.566;2023-12-20T05:43:48;5.05;;;1.65;;
73670;SDS011;61968;48.178;11.566;2023-12-20T05:46:17;9.73;;;3.15;;
73670;SDS011;61968;48.178;11.566;2023-12-20T05:48:45;4.00;;;1.80;;
73670;SDS011;61968;48.178;11.566;2023-12-20T05:51:14;1.30;;;1.20;;
73670;SDS011;61968;48.178;11.566;2023-12-20T05:53:40;1.50;;;1.40;;
73670;SDS011;61968;48.178;11.566;2023-12-20T05:58:33;3.28;;;1.50;;
73670;SDS011;61968;48.178;11.566;2023-12-20T06:01:00;1.23;;;1.13;;
73670;SDS011;61968;48.178;11.566;2023-12-20T06:03:27;5.35;;;1.55;;
73670;SDS011;61968;48.178;11.566;2023-12-20T06:08:21;5.22;;;2.55;;
73670;SDS011;61968;48.178;11.566;2023-12-20T06:13:14;5.78;;;2.78;;
73670;SDS011;61968;48.178;11.566;2023-12-20T06:15:41;1.08;;;1.00;;
73670;SDS011;61968;48.178;11.566;2023-12-20T06:18:07;1.30;;;1.20;;
73670;SDS011;61968;48.178;11.566;2023-12-20T06:23:01;1.42;;;1.33;;
73670;SDS011;61968;48.178;11.566;2023-12-20T06:25:28;6.85;;;1.98;;
73670;SDS011;61968;48.178;11.566;2023-12-20T06:27:55;1.52;;;1.42;;
73670;SDS011;61968;48.178;11.566;2023-12-20T06:32:49;2.45;;;1.50;;
73670;SDS011;61968;48.178;11.566;2023-12-20T06:35:16;1.30;;;1.20;;
73670;SDS011;61968;48.178;11.566;2023-12-20T06:40:11;1.42;;;1.30;;
73670;SDS011;61968;48.178;11.566;2023-12-20T06:42:37;3.58;;;1.63;;
73670;SDS011;61968;48.178;11.566;2023-12-20T06:47:31;2.92;;;1.55;;
73670;SDS011;61968;48.178;11.566;2023-12-20T06:49:58;2.50;;;1.02;;
73670;SDS011;61968;48.178;11.566;2023-12-20T06:52:24;2.08;;;1.10;;
73670;SDS011;61968;48.178;11.566;2023-12-20T06:54:51;2.80;;;1.15;;
73670;SDS011;61968;48.178;11.566;2023-12-20T06:57:19;1.48;;;1.38;;
73670;SDS011;61968;48.178;11.566;2023-12-20T06:59:46;1.50;;;1.40;;
73670;SDS011;61968;48.178;11.566;2023-12-20T07:04:39;1.55;;;1.45;;
73670;SDS011;61968;48.178;11.566;2023-12-20T07:07:06;3.40;;;0.95;;
73670;SDS011;61968;48.178;11.566;2023-12-20T07:09:32;1.30;;;1.20;;
73670;SDS011;61968;48.178;11.566;2023-12-20T07:11:59;2.15;;;1.38;;
73670;SDS011;61968;48.178;11.566;2023-12-20T07:14:27;1.40;;;1.30;;
73670;SDS011;61968;48.178;11.566;2023-12-20T07:16:54;2.58;;;0.88;;
73670;SDS011;61968;48.178;11.566;2023-12-20T07:19:21;1.55;;;1.00;;
73670;SDS011;61968;48.178;11.566;2023-12-20T07:24:13;0.63;;;0.63;;
73670;SDS011;61968;48.178;11.566;2023-12-20T07:26:40;0.85;;;0.77;;
73670;SDS011;61968;48.178;11.566;2023-12-20T07:29:06;1.27;;;0.98;;
73670;SDS011;61968;48.178;11.566;2023-12-20T07:31:37;1.05;;;0.80;;
73670;SDS011;61968;48.178;11.566;2023-12-20T07:34:04;0.93;;;0.70;;
73670;SDS011;61968;48.178;11.566;2023-12-20T07:36:31;1.38;;;1.27;;
73670;SDS011;61968;48.178;11.566;2023-12-20T07:41:24;1.00;;;0.60;;
73670;SDS011;61968;48.178;11.566;2023-12-20T07:43:51;0.95;;;0.50;;
73670;SDS011;61968;48.178;11.566;2023-12-20T07:46:18;0.80;;;0.70;;
73670;SDS011;61968;48.178;11.566;2023-12-20T07:48:52;0.50;;;0.50;;
73670;SDS011;61968;48.178;11.566;2023-12-20T07:51:19;0.55;;;0.55;;
73670;SDS011;61968;48.178;11.566;2023-12-20T07:53:46;0.95;;;0.60;;
73670;SDS011;61968;48.178;11.566;2023-12-20T07:56:13;2.38;;;0.68;;
73670;SDS011;61968;48.178;11.566;2023-12-20T07:58:40;0.43;;;0.43;;
73670;SDS011;61968;48.178;11.566;2023-12-20T08:03:33;0.60;;;0.60;;
73670;SDS011;61968;48.178;11.566;2023-12-20T08:06:02;0.68;;;0.68;;
73670;SDS011;61968;48.178;11.566;2023-12-20T08:08:29;2.83;;;1.00;;
73670;SDS011;61968;48.178;11.566;2023-12-20T08:13:25;3.50;;;0.60;;
73670;SDS011;61968;48.178;11.566;2023-12-20T08:15:52;0.30;;;0.30;;
73670;SDS011;61968;48.178;11.566;2023-12-20T08:18:19;1.13;;;0.57;;
73670;SDS011;61968;48.178;11.566;2023-12-20T08:23:14;1.08;;;0.70;;
73670;SDS011;61968;48.178;11.566;2023-12-20T08:25:41;1.17;;;0.93;;
73670;SDS011;61968;48.178;11.566;2023-12-20T08:30:34;0.43;;;0.43;;
73670;SDS011;61968;48.178;11.566;2023-12-20T08:33:01;0.93;;;0.57;;
73670;SDS011;61968;48.178;11.566;2023-12-20T08:35:28;1.42;;;0.60;;
73670;SDS011;61968;48.178;11.566;2023-12-20T08:37:56;0.57;;;0.40;;
73670;SDS011;61968;48.178;11.566;2023-12-20T08:40:24;0.50;;;0.50;;
73670;SDS011;61968;48.178;11.566;2023-12-20T08:42:51;0.43;;;0.40;;
73670;SDS011;61968;48.178;11.566;2023-12-20T08:45:18;0.52;;;0.52;;
73670;SDS011;61968;48.178;11.566;2023-12-20T08:47:44;0.60;;;0.60;;
73670;SDS011;61968;48.178;11.566;2023-12-20T08:50:11;0.70;;;0.70;;
73670;SDS011;61968;48.178;11.566;2023-12-20T08:52:38;0.45;;;0.30;;
73670;SDS011;61968;48.178;11.566;2023-12-20T08:55:05;0.43;;;0.43;;
73670;SDS011;61968;48.178;11.566;2023-12-20T08:57:34;1.42;;;0.52;;
73670;SDS011;61968;48.178;11.566;2023-12-20T09:00:00;0.50;;;0.50;;
73670;SDS011;61968;48.178;11.566;2023-12-20T09:02:28;9.10;;;2.22;;
73670;SDS011;61968;48.178;11.566;2023-12-20T09:04:54;2.60;;;1.38;;
73670;SDS011;61968;48.178;11.566;2023-12-20T09:07:22;6.15;;;0.88;;
73670;SDS011;61968;48.178;11.566;2023-12-20T09:09:49;0.43;;;0.32;;
73670;SDS011;61968;48.178;11.566;2023-12-20T09:12:17;2.13;;;0.55;;
73670;SDS011;61968;48.178;11.566;2023-12-20T09:14:47;0.40;;;0.40;;
73670;SDS011;61968;48.178;11.566;2023-12-20T09:17:15;0.45;;;0.43;;
73670;SDS011;61968;48.178;11.566;2023-12-20T09:19:42;0.47;;;0.30;;
73670;SDS011;61968;48.178;11.566;2023-12-20T09:22:11;1.65;;;0.70;;
73670;SDS011;61968;48.178;11.566;2023-12-20T09:24:37;0.30;;;0.30;;
73670;SDS011;61968;48.178;11.566;2023-12-20T09:27:04;0.50;;;0.50;;
73670;SDS011;61968;48.178;11.566;2023-12-20T09:29:31;1.20;;;0.50;;
73670;SDS011;61968;48.178;11.566;2023-12-20T09:34:26;0.63;;;0.50;;
73670;SDS011;61968;48.178;11.566;2023-12-20T09:36:53;6.07;;;0.77;;
73670;SDS011;61968;48.178;11.566;2023-12-20T09:39:20;1.05;;;0.60;;
73670;SDS011;61968;48.178;11.566;2023-12-20T09:41:49;0.90;;;0.60;;
73670;SDS011;61968;48.178;11.566;2023-12-20T09:44:22;3.42;;;0.75;;
73670;SDS011;61968;48.178;11.566;2023-12-20T09:46:49;0.35;;;0.35;;
73670;SDS011;61968;48.178;11.566;2023-12-20T09:49:18;0.30;;;0.30;;
73670;SDS011;61968;48.178;11.566;2023-12-20T09:51:45;1.45;;;0.55;;
73670;SDS011;61968;48.178;11.566;2023-12-20T09:54:13;1.60;;;0.60;;
73670;SDS011;61968;48.178;11.566;2023-12-20T09:56:42;0.55;;;0.55;;
73670;SDS011;61968;48.178;11.566;2023-12-20T09:59:09;0.40;;;0.40;;
73670;SDS011;61968;48.178;11.566;2023-12-20T10:01:36;0.60;;;0.57;;
73670;SDS011;61968;48.178;11.566;2023-12-20T10:04:05;0.40;;;0.30;;
73670;SDS011;61968;48.178;11.566;2023-12-20T10:06:35;0.45;;;0.40;;
73670;SDS011;61968;48.178;11.566;2023-12-20T10:09:02;0.95;;;0.90;;
73670;SDS011;61968;48.178;11.566;2023-12-20T10:11:30;0.93;;;0.75;;
73670;SDS011;61968;48.178;11.566;2023-12-20T10:16:25;4.82;;;1.55;;
73670;SDS011;61968;48.178;11.566;2023-12-20T10:21:19;0.90;;;0.80;;
73670;SDS011;61968;48.178;11.566;2023-12-20T10:23:47;0.57;;;0.57;;
73670;SDS011;61968;48.178;11.566;2023-12-20T10:26:19;2.17;;;0.73;;
73670;SDS011;61968;48.178;11.566;2023-12-20T10:28:46;0.68;;;0.65;;
73670;SDS011;61968;48.178;11.566;2023-12-20T10:31:25;0.70;;;0.70;;
73670;SDS011;61968;48.178;11.566;2023-12-20T10:33:52;0.52;;;0.52;;
73670;SDS011;61968;48.178;11.566;2023-12-20T10:38:48;0.90;;;0.90;;
73670;SDS011;61968;48.178;11.566;2023-12-20T10:41:18;1.13;;;0.98;;
73670;SDS011;61968;48.178;11.566;2023-12-20T10:43:49;0.50;;;0.50;;
73670;SDS011;61968;48.178;11.566;2023-12-20T10:46:16;0.80;;;0.80;;
73670;SDS011;61968;48.178;11.566;2023-12-20T10:48:44;0.65;;;0.52;;
73670;SDS011;61968;48.178;11.566;2023-12-20T10:51:13;0.50;;;0.50;;
73670;SDS011;61968;48.178;11.566;2023-12-20T10:53:43;1.25;;;0.77;;
73670;SDS011;61968;48.178;11.566;2023-12-20T10:56:15;0.63;;;0.63;;
73670;SDS011;61968;48.178;11.566;2023-12-20T10:58:43;0.65;;;0.60;;
73670;SDS011;61968;48.178;11.566;2023-12-20T11:01:12;0.57;;;0.57;;
73670;SDS011;61968;48.178;11.566;2023-12-20T11:03:43;1.50;;;0.68;;
73670;SDS011;61968;48.178;11.566;2023-12-20T11:06:18;2.28;;;0.70;;
73670;SDS011;61968;48.178;11.566;2023-12-20T11:09:10;1.13;;;0.90;;
73670;SDS011;61968;48.178;11.566;2023-12-20T11:12:02;0.80;;;0.68;;
73670;SDS011;61968;48.178;11.566;2023-12-20T11:14:38;0.75;;;0.60;;
73670;SDS011;61968;48.178;11.566;2023-12-20T11:17:08;1.23;;;0.93;;
73670;SDS011;61968;48.178;11.566;2023-12-20T11:19:42;1.65;;;1.50;;
73670;SDS011;61968;48.178;11.566;2023-12-20T11:22:26;0.98;;;0.98;;
73670;SDS011;61968;48.178;11.566;2023-12-20T11:24:53;0.85;;;0.82;;
73670;SDS011;61968;48.178;11.566;2023-12-20T11:27:25;1.13;;;0.82;;
73670;SDS011;61968;48.178;11.566;2023-12-20T11:29:52;1.27;;;1.17;;
73670;SDS011;61968;48.178;11.566;2023-12-20T11:32:30;0.90;;;0.90;;
73670;SDS011;61968;48.178;11.566;2023-12-20T11:34:57;1.27;;;1.05;;
73670;SDS011;61968;48.178;11.566;2023-12-20T11:37:28;0.63;;;0.63;;
73670;SDS011;61968;48.178;11.566;2023-12-20T11:42:28;1.75;;;1.15;;
73670;SDS011;61968;48.178;11.566;2023-12-20T11:44:59;0.70;;;0.70;;
73670;SDS011;61968;48.178;11.566;2023-12-20T11:49:52;1.10;;;0.70;;
73670;SDS011;61968;48.178;11.566;2023-12-20T11:52:21;1.40;;;1.00;;
73670;SDS011;61968;48.178;11.566;2023-12-20T11:54:50;0.70;;;0.70;;
73670;SDS011;61968;48.178;11.566;2023-12-20T11:57:17;0.82;;;0.70;;
73670;SDS011;61968;48.178;11.566;2023-12-20T12:02:12;2.03;;;1.15;;
73670;SDS011;61968;48.178;11.566;2023-12-20T12:04:41;1.48;;;1.05;;
73670;SDS011;61968;48.178;11.566;2023-12-20T12:07:07;0.90;;;0.90;;
73670;SDS011;61968;48.178;11.566;2023-12-20T12:12:01;1.15;;;0.80;;
73670;SDS011;61968;48.178;11.566;2023-12-20T12:14:30;0.77;;;0.77;;
73670;SDS011;61968;48.178;11.566;2023-12-20T12:16:58;1.55;;;1.13;;
73670;SDS011;61968;48.178;11.566;2023-12-20T12:19:25;1.25;;;0.85;;
73670;SDS011;61968;48.178;11.566;2023-12-20T12:22:03;0.98;;;0.88;;
73670;SDS011;61968;48.178;11.566;2023-12-20T12:24:31;1.80;;;1.15;;
73670;SDS011;61968;48.178;11.566;2023-12-20T12:29:24;0.85;;;0.80;;
73670;SDS011;61968;48.178;11.566;2023-12-20T12:34:19;0.80;;;0.70;;
73670;SDS011;61968;48.178;11.566;2023-12-20T12:36:45;2.25;;;1.08;;
73670;SDS011;61968;48.178;11.566;2023-12-20T12:39:13;1.33;;;0.85;;
73670;SDS011;61968;48.178;11.566;2023-12-20T12:41:41;0.70;;;0.70;;
73670;SDS011;61968;48.178;11.566;2023-12-20T12:44:08;1.30;;;1.20;;
73670;SDS011;61968;48.178;11.566;2023-12-20T12:46:34;1.42;;;0.90;;
73670;SDS011;61968;48.178;11.566;2023-12-20T12:49:01;1.20;;;1.08;;
73670;SDS011;61968;48.178;11.566;2023-12-20T12:51:30;1.92;;;1.20;;
73670;SDS011;61968;48.178;11.566;2023-12-20T12:53:56;2.58;;;0.80;;
73670;SDS011;61968;48.178;11.566;2023-12-20T12:58:49;4.40;;;1.98;;
73670;SDS011;61968;48.178;11.566;2023-12-20T13:01:16;1.13;;;1.00;;
73670;SDS011;61968;48.178;11.566;2023-12-20T13:06:09;1.00;;;0.95;;
73670;SDS011;61968;48.178;11.566;2023-12-20T13:08:37;1.58;;;1.08;;
73670;SDS011;61968;48.178;11.566;2023-12-20T13:11:04;2.08;;;1.20;;
73670;SDS011;61968;48.178;11.566;2023-12-20T13:15:57;2.05;;;1.20;;
73670;SDS011;61968;48.178;11.566;2023-12-20T13:20:50;0.80;;;0.80;;
73670;SDS011;61968;48.178;11.566;2023-12-20T13:25:45;1.67;;;1.08;;
73670;SDS011;61968;48.178;11.566;2023-12-20T13:28:12;1.13;;;0.82;;
73670;SDS011;61968;48.178;11.566;2023-12-20T13:30:39;2.35;;;1.23;;
73670;SDS011;61968;48.178;11.566;2023-12-20T13:33:06;1.23;;;0.80;;
73670;SDS011;61968;48.178;11.566;2023-12-20T13:35:33;5.78;;;2.08;;
73670;SDS011;61968;48.178;11.566;2023-12-20T13:38:00;1.42;;;0.95;;
73670;SDS011;61968;48.178;11.566;2023-12-20T13:40:27;3.17;;;1.20;;
73670;SDS011;61968;48.178;11.566;2023-12-20T13:42:55;1.00;;;1.00;;
73670;SDS011;61968;48.178;11.566;2023-12-20T13:45:22;1.58;;;1.48;;
73670;SDS011;61968;48.178;11.566;2023-12-20T13:47:50;1.92;;;1.20;;
73670;SDS011;61968;48.178;11.566;2023-12-20T13:50:19;1.33;;;0.90;;
73670;SDS011;61968;48.178;11.566;2023-12-20T13:55:12;2.75;;;1.40;;
73670;SDS011;61968;48.178;11.566;2023-12-20T14:00:09;3.28;;;1.88;;
73670;SDS011;61968;48.178;11.566;2023-12-20T14:02:39;2.72;;;1.08;;
73670;SDS011;61968;48.178;11.566;2023-12-20T14:05:07;4.20;;;1.95;;
73670;SDS011;61968;48.178;11.566;2023-12-20T14:07:35;2.65;;;1.25;;
73670;SDS011;61968;48.178;11.566;2023-12-20T14:10:02;2.05;;;1.45;;
73670;SDS011;61968;48.178;11.566;2023-12-20T14:12:29;2.25;;;1.13;;
73670;SDS011;61968;48.178;11.566;2023-12-20T14:15:01;1.67;;;1.52;;
73670;SDS011;61968;48.178;11.566;2023-12-20T14:17:29;1.45;;;1.10;;
73670;SDS011;61968;48.178;11.566;2023-12-20T14:19:56;2.78;;;1.40;;
73670;SDS011;61968;48.178;11.566;2023-12-20T14:24:50;1.15;;;1.05;;
73670;SDS011;61968;48.178;11.566;2023-12-20T14:27:19;4.45;;;1.30;;
73670;SDS011;61968;48.178;11.566;2023-12-20T14:29:49;1.88;;;1.30;;
73670;SDS011;61968;48.178;11.566;2023-12-20T14:32:16;2.00;;;1.02;;
73670;SDS011;61968;48.178;11.566;2023-12-20T14:34:44;1.30;;;1.20;;
73670;SDS011;61968;48.178;11.566;2023-12-20T14:37:10;3.65;;;1.27;;
73670;SDS011;61968;48.178;11.566;2023-12-20T14:39:37;4.10;;;1.17;;
73670;SDS011;61968;48.178;11.566;2023-12-20T14:42:06;4.28;;;1.05;;
73670;SDS011;61968;48.178;11.566;2023-12-20T14:44:36;1.92;;;1.58;;
73670;SDS011;61968;48.178;11.566;2023-12-20T14:49:29;4.00;;;1.30;;
73670;SDS011;61968;48.178;11.566;2023-12-20T14:51:57;3.08;;;1.30;;
73670;SDS011;61968;48.178;11.566;2023-12-20T14:54:25;2.35;;;1.00;;
73670;SDS011;61968;48.178;11.566;2023-12-20T14:56:52;3.25;;;1.30;;
73670;SDS011;61968;48.178;11.566;2023-12-20T15:01:46;3.25;;;1.25;;
73670;SDS011;61968;48.178;11.566;2023-12-20T15:04:12;4.47;;;1.17;;
73670;SDS011;61968;48.178;11.566;2023-12-20T15:06:40;1.52;;;1.00;;
73670;SDS011;61968;48.178;11.566;2023-12-20T15:09:08;5.10;;;1.33;;
73670;SDS011;61968;48.178;11.566;2023-12-20T15:11:35;1.10;;;0.70;;
73670;SDS011;61968;48.178;11.566;2023-12-20T15:16:29;1.13;;;1.02;;
73670;SDS011;61968;48.178;11.566;2023-12-20T15:21:23;3.55;;;0.90;;
73670;SDS011;61968;48.178;11.566;2023-12-20T15:23:56;2.78;;;0.82;;
73670;SDS011;61968;48.178;11.566;2023-12-20T15:26:31;1.85;;;1.05;;
73670;SDS011;61968;48.178;11.566;2023-12-20T15:28:58;2.05;;;1.02;;
73670;SDS011;61968;48.178;11.566;2023-12-20T15:31:26;3.03;;;1.13;;
73670;SDS011;61968;48.178;11.566;2023-12-20T15:36:19;1.25;;;1.00;;
73670;SDS011;61968;48.178;11.566;2023-12-20T15:38:45;1.80;;;1.00;;
73670;SDS011;61968;48.178;11.566;2023-12-20T15:41:16;3.17;;;0.95;;
73670;SDS011;61968;48.178;11.566;2023-12-20T15:43:46;1.15;;;1.05;;
73670;SDS011;61968;48.178;11.566;2023-12-20T15:46:13;0.73;;;0.73;;
73670;SDS011;61968;48.178;11.566;2023-12-20T15:48:40;2.42;;;1.10;;
73670;SDS011;61968;48.178;11.566;2023-12-20T15:53:33;0.80;;;0.80;;
73670;SDS011;61968;48.178;11.566;2023-12-20T15:56:00;2.95;;;0.88;;
73670;SDS011;61968;48.178;11.566;2023-12-20T15:58:28;1.55;;;0.70;;
73670;SDS011;61968;48.178;11.566;2023-12-20T16:00:58;1.27;;;0.98;;
73670;SDS011;61968;48.178;11.566;2023-12-20T16:03:25;1.27;;;1.10;;
73670;SDS011;61968;48.178;11.566;2023-12-20T16:05:52;2.55;;;1.17;;
73670;SDS011;61968;48.178;11.566;2023-12-20T16:08:19;2.60;;;1.55;;
73670;SDS011;61968;48.178;11.566;2023-12-20T16:13:12;1.20;;;1.10;;
73670;SDS011;61968;48.178;11.566;2023-12-20T16:15:39;2.90;;;1.30;;
73670;SDS011;61968;48.178;11.566;2023-12-20T16:18:07;2.35;;;1.45;;
73670;SDS011;61968;48.178;11.566;2023-12-20T16:20:36;1.17;;;1.02;;
73670;SDS011;61968;48.178;11.566;2023-12-20T16:25:29;1.17;;;0.73;;
73670;SDS011;61968;48.178;11.566;2023-12-20T16:30:22;3.05;;;1.33;;
73670;SDS011;61968;48.178;11.566;2023-12-20T16:35:18;2.17;;;1.10;;
73670;SDS011;61968;48.178;11.566;2023-12-20T16:37:45;2.80;;;1.75;;
73670;SDS011;61968;48.178;11.566;2023-12-20T16:40:13;1.73;;;1.30;;
73670;SDS011;61968;48.178;11.566;2023-12-20T16:42:39;3.60;;;0.93;;
73670;SDS011;61968;48.178;11.566;2023-12-20T16:45:06;2.88;;;1.40;;
73670;SDS011;61968;48.178;11.566;2023-12-20T16:47:34;4.20;;;1.05;;
73670;SDS011;61968;48.178;11.566;2023-12-20T16:52:31;1.88;;;1.25;;
73670;SDS011;61968;48.178;11.566;2023-12-20T16:54:58;2.15;;;1.27;;
73670;SDS011;61968;48.178;11.566;2023-12-20T16:59:51;1.75;;;1.20;;
73670;SDS011;61968;48.178;11.566;2023-12-20T17:04:44;1.90;;;1.10;;
73670;SDS011;61968;48.178;11.566;2023-12-20T17:09:38;2.30;;;1.10;;